Casar, NC (28020)

6:12 PM EDT on June 24, 2017 (GMT -0400)
The Summit | | Change Station

Elev 1755 ft 35.50 °N, 81.80 °W | Updated 12 minutes ago

Partly Cloudy
Partly Cloudy
78.6 °F
Feels Like 82 °F
N
0.7
Wind Variable Wind from East
Gusts 3.1 mph

Today
High -- | Low -- °F
--% Chance of Precip.
Yesterday
High -- | Low -- °F
Precip. -- in
Pressure 29.96 in
Visibility 10.0 miles
Clouds Scattered Clouds 3000 ft
Scattered Clouds 3600 ft
Heat Index 82 °F
Dew Point 73 °F
Humidity 83%
Rainfall 0.04 in
Snow Depth Not available.
6:12 AM 8:45 PM
New Moon, 1% visible
METAR KEHO 242205Z AUTO 17006KT 10SM SCT030 SCT036 25/25 A2996 RMK AO2 T02500250
Pressure 29.96 in
Visibility 10.0 miles
Clouds Scattered Clouds 3000 ft
Scattered Clouds 3600 ft
Heat Index 82 °F
Dew Point 73 °F
Humidity 83%
Rainfall 0.04 in
Snow Depth Not available.
6:12 AM 8:45 PM
New Moon, 1% visible
METAR KEHO 242205Z AUTO 17006KT 10SM SCT030 SCT036 25/25 A2996 RMK AO2 T02500250

Get Severe Weather Alerts

Thanks for signing up!

Be on the lookout for a verification email in your inbox.

You'll start receiving the daily forecast at 6 AM.

×

10-Day Weather Forecast

Almanac

Astronomy

Jun. 24, 2017 Rise Set
Actual Time
Civil Twilight
Nautical Twilight
Astronomical Twilight
Moon
Length of Visible Light
Length of Day
Tomorrow will be .
, % of the Moon is Illuminated

Today's Extremes

State Highs State Lows

Community

WunderPhotos

Category 6

Welcome to Category 6. This is the collective home for Weather Underground's featured writeups by Dr. Jeff Masters (right), Bob Henson (left), Chris Burt, and other regular contributors.

Nearby

Air Quality

  Air Quality AQ Index Pollutant
Not available.

Snow Depth

Station Depth Elevation

Earthquake Activity

City Distance Mag. Time & Date
Minimum magnitude displayed is 2.5.

Coastal Water Temperatures

Place Temperature

Stations

Nearby Weather Stations

Station Location Temp. Windchill Dew Point Humidity Wind Precip. Elev Updated Type
                   

Watches & Warnings

There are currently no watches in effect.